Aviation Digital Data Service (ADDS)

Output produced by METARs form (0355 UTC 26 April 2019)
found at http://www.aviationweather.gov/metar/data/
 
METAR text: SCFA 260300Z 15004KT 9999 FEW011 16/13 Q1017 NOSIG
Conditions at: SCFA (ANTOFAGASTA/CERR, CL) observed 0300 UTC 26 April 2019
Temperature: 16.0°C (61°F)
Dewpoint: 13.0°C (55°F) [RH = 82%]
Pressure (altimeter): 30.03 inches Hg (1017.0 mb)
Winds: from the SSE (150 degrees) at 5 MPH (4 knots; 2.1 m/s)
Visibility: 6 or more miles (10+ km)
Ceiling: at least 12,000 feet AGL
Clouds: few clouds at 1100 feet AGL
Weather: no significant weather observed at this time

METAR text: SCFA 260200Z 17007KT 9999 FEW014 17/14 Q1017 NOSIG
Conditions at: SCFA (ANTOFAGASTA/CERR, CL) observed 0200 UTC 26 April 2019
Temperature: 17.0°C (63°F)
Dewpoint: 14.0°C (57°F) [RH = 82%]
Pressure (altimeter): 30.03 inches Hg (1017.0 mb)
Winds: from the S (170 degrees) at 8 MPH (7 knots; 3.6 m/s)
Visibility: 6 or more miles (10+ km)
Ceiling: at least 12,000 feet AGL
Clouds: few clouds at 1400 feet AGL
Weather: no significant weather observed at this time

METAR text: SCFA 260100Z 17008KT 9999 FEW015 17/14 Q1016 NOSIG
Conditions at: SCFA (ANTOFAGASTA/CERR, CL) observed 0100 UTC 26 April 2019
Temperature: 17.0°C (63°F)
Dewpoint: 14.0°C (57°F) [RH = 82%]
Pressure (altimeter): 30.00 inches Hg (1016.0 mb)
Winds: from the S (170 degrees) at 9 MPH (8 knots; 4.1 m/s)
Visibility: 6 or more miles (10+ km)
Ceiling: at least 12,000 feet AGL
Clouds: few clouds at 1500 feet AGL
Weather: no significant weather observed at this time

METAR text: SCFA 260000Z 18011KT 9999 BKN017 17/14 Q1016 NOSIG
Conditions at: SCFA (ANTOFAGASTA/CERR, CL) observed 0000 UTC 26 April 2019
Temperature: 17.0°C (63°F)
Dewpoint: 14.0°C (57°F) [RH = 82%]
Pressure (altimeter): 30.00 inches Hg (1016.0 mb)
Winds: from the S (180 degrees) at 13 MPH (11 knots; 5.7 m/s)
Visibility: 6 or more miles (10+ km)
Ceiling: 1700 feet AGL
Clouds: broken clouds at 1700 feet AGL
Weather: no significant weather observed at this time

METAR text: SCFA 252300Z 18011KT 9999 BKN015 18/14 Q1016 NOSIG
Conditions at: SCFA (ANTOFAGASTA/CERR, CL) observed 2300 UTC 25 April 2019
Temperature: 18.0°C (64°F)
Dewpoint: 14.0°C (57°F) [RH = 77%]
Pressure (altimeter): 30.00 inches Hg (1016.0 mb)
Winds: from the S (180 degrees) at 13 MPH (11 knots; 5.7 m/s)
Visibility: 6 or more miles (10+ km)
Ceiling: 1500 feet AGL
Clouds: broken clouds at 1500 feet AGL
Weather: no significant weather observed at this time

METAR text: SCFA 252200Z 18012KT 9999 BKN013 18/14 Q1015 NOSIG
Conditions at: SCFA (ANTOFAGASTA/CERR, CL) observed 2200 UTC 25 April 2019
Temperature: 18.0°C (64°F)
Dewpoint: 14.0°C (57°F) [RH = 77%]
Pressure (altimeter): 29.97 inches Hg (1015.0 mb)
Winds: from the S (180 degrees) at 14 MPH (12 knots; 6.2 m/s)
Visibility: 6 or more miles (10+ km)
Ceiling: 1300 feet AGL
Clouds: broken clouds at 1300 feet AGL
Weather: no significant weather observed at this time

METAR text: SCFA 252100Z 19014KT 9999 BKN012 19/14 Q1015 NOSIG
Conditions at: SCFA (ANTOFAGASTA/CERR, CL) observed 2100 UTC 25 April 2019
Temperature: 19.0°C (66°F)
Dewpoint: 14.0°C (57°F) [RH = 73%]
Pressure (altimeter): 29.97 inches Hg (1015.0 mb)
Winds: from the S (190 degrees) at 16 MPH (14 knots; 7.2 m/s)
Visibility: 6 or more miles (10+ km)
Ceiling: 1200 feet AGL
Clouds: broken clouds at 1200 feet AGL
Weather: no significant weather observed at this time

METAR text: SCFA 252000Z 19014KT 9999 BKN012 19/14 Q1015 NOSIG
Conditions at: SCFA (ANTOFAGASTA/CERR, CL) observed 2000 UTC 25 April 2019
Temperature: 19.0°C (66°F)
Dewpoint: 14.0°C (57°F) [RH = 73%]
Pressure (altimeter): 29.97 inches Hg (1015.0 mb)
Winds: from the S (190 degrees) at 16 MPH (14 knots; 7.2 m/s)
Visibility: 6 or more miles (10+ km)
Ceiling: 1200 feet AGL
Clouds: broken clouds at 1200 feet AGL
Weather: no significant weather observed at this time

METAR text: SCFA 251900Z 20014KT 9999 SCT011 19/14 Q1015 NOSIG
Conditions at: SCFA (ANTOFAGASTA/CERR, CL) observed 1900 UTC 25 April 2019
Temperature: 19.0°C (66°F)
Dewpoint: 14.0°C (57°F) [RH = 73%]
Pressure (altimeter): 29.97 inches Hg (1015.0 mb)
Winds: from the SSW (200 degrees) at 16 MPH (14 knots; 7.2 m/s)
Visibility: 6 or more miles (10+ km)
Ceiling: at least 12,000 feet AGL
Clouds: scattered clouds at 1100 feet AGL
Weather: no significant weather observed at this time

METAR text: SCFA 251800Z 20013KT 9999 FEW017 19/13 Q1015 NOSIG
Conditions at: SCFA (ANTOFAGASTA/CERR, CL) observed 1800 UTC 25 April 2019
Temperature: 19.0°C (66°F)
Dewpoint: 13.0°C (55°F) [RH = 68%]
Pressure (altimeter): 29.97 inches Hg (1015.0 mb)
Winds: from the SSW (200 degrees) at 15 MPH (13 knots; 6.7 m/s)
Visibility: 6 or more miles (10+ km)
Ceiling: at least 12,000 feet AGL
Clouds: few clouds at 1700 feet AGL
Weather: no significant weather observed at this time

METAR text: SCFA 251700Z 21012KT 9999 FEW017 19/13 Q1016 NOSIG
Conditions at: SCFA (ANTOFAGASTA/CERR, CL) observed 1700 UTC 25 April 2019
Temperature: 19.0°C (66°F)
Dewpoint: 13.0°C (55°F) [RH = 68%]
Pressure (altimeter): 30.00 inches Hg (1016.0 mb)
Winds: from the SSW (210 degrees) at 14 MPH (12 knots; 6.2 m/s)
Visibility: 6 or more miles (10+ km)
Ceiling: at least 12,000 feet AGL
Clouds: few clouds at 1700 feet AGL
Weather: no significant weather observed at this time

METAR text: SCFA 251600Z 20011KT 9999 FEW017 19/13 Q1016 NOSIG
Conditions at: SCFA (ANTOFAGASTA/CERR, CL) observed 1600 UTC 25 April 2019
Temperature: 19.0°C (66°F)
Dewpoint: 13.0°C (55°F) [RH = 68%]
Pressure (altimeter): 30.00 inches Hg (1016.0 mb)
Winds: from the SSW (200 degrees) at 13 MPH (11 knots; 5.7 m/s)
Visibility: 6 or more miles (10+ km)
Ceiling: at least 12,000 feet AGL
Clouds: few clouds at 1700 feet AGL
Weather: no significant weather observed at this time

METAR text: SCFA 251500Z 19011KT 9999 FEW019 18/13 Q1017 NOSIG
Conditions at: SCFA (ANTOFAGASTA/CERR, CL) observed 1500 UTC 25 April 2019
Temperature: 18.0°C (64°F)
Dewpoint: 13.0°C (55°F) [RH = 73%]
Pressure (altimeter): 30.03 inches Hg (1017.0 mb)
Winds: from the S (190 degrees) at 13 MPH (11 knots; 5.7 m/s)
Visibility: 6 or more miles (10+ km)
Ceiling: at least 12,000 feet AGL
Clouds: few clouds at 1900 feet AGL
Weather: no significant weather observed at this time

METAR text: SCFA 251400Z 20008KT 9999 FEW019 18/13 Q1017 NOSIG
Conditions at: SCFA (ANTOFAGASTA/CERR, CL) observed 1400 UTC 25 April 2019
Temperature: 18.0°C (64°F)
Dewpoint: 13.0°C (55°F) [RH = 73%]
Pressure (altimeter): 30.03 inches Hg (1017.0 mb)
Winds: from the SSW (200 degrees) at 9 MPH (8 knots; 4.1 m/s)
Visibility: 6 or more miles (10+ km)
Ceiling: at least 12,000 feet AGL
Clouds: few clouds at 1900 feet AGL
Weather: no significant weather observed at this time

METAR text: SCFA 251300Z 19010KT 9999 FEW018 17/13 Q1016 NOSIG
Conditions at: SCFA (ANTOFAGASTA/CERR, CL) observed 1300 UTC 25 April 2019
Temperature: 17.0°C (63°F)
Dewpoint: 13.0°C (55°F) [RH = 77%]
Pressure (altimeter): 30.00 inches Hg (1016.0 mb)
Winds: from the S (190 degrees) at 12 MPH (10 knots; 5.1 m/s)
Visibility: 6 or more miles (10+ km)
Ceiling: at least 12,000 feet AGL
Clouds: few clouds at 1800 feet AGL
Weather: no significant weather observed at this time

METAR text: SCFA 251200Z 20008KT 9999 FEW006 16/14 Q1016 NOSIG
Conditions at: SCFA (ANTOFAGASTA/CERR, CL) observed 1200 UTC 25 April 2019
Temperature: 16.0°C (61°F)
Dewpoint: 14.0°C (57°F) [RH = 88%]
Pressure (altimeter): 30.00 inches Hg (1016.0 mb)
Winds: from the SSW (200 degrees) at 9 MPH (8 knots; 4.1 m/s)
Visibility: 6 or more miles (10+ km)
Ceiling: at least 12,000 feet AGL
Clouds: few clouds at 600 feet AGL
Weather: no significant weather observed at this time

METAR text: SCFA 251100Z 21007KT 9999 FEW014 15/13 Q1016 NOSIG
Conditions at: SCFA (ANTOFAGASTA/CERR, CL) observed 1100 UTC 25 April 2019
Temperature: 15.0°C (59°F)
Dewpoint: 13.0°C (55°F) [RH = 88%]
Pressure (altimeter): 30.00 inches Hg (1016.0 mb)
Winds: from the SSW (210 degrees) at 8 MPH (7 knots; 3.6 m/s)
Visibility: 6 or more miles (10+ km)
Ceiling: at least 12,000 feet AGL
Clouds: few clouds at 1400 feet AGL
Weather: no significant weather observed at this time

METAR text: SCFA 251000Z 14004KT 9999 FEW014 15/13 Q1015 NOSIG
Conditions at: SCFA (ANTOFAGASTA/CERR, CL) observed 1000 UTC 25 April 2019
Temperature: 15.0°C (59°F)
Dewpoint: 13.0°C (55°F) [RH = 88%]
Pressure (altimeter): 29.97 inches Hg (1015.0 mb)
Winds: from the SE (140 degrees) at 5 MPH (4 knots; 2.1 m/s)
Visibility: 6 or more miles (10+ km)
Ceiling: at least 12,000 feet AGL
Clouds: few clouds at 1400 feet AGL
Weather: no significant weather observed at this time

METAR text: SCFA 250900Z 20008KT 9999 FEW011 16/13 Q1015 NOSIG
Conditions at: SCFA (ANTOFAGASTA/CERR, CL) observed 0900 UTC 25 April 2019
Temperature: 16.0°C (61°F)
Dewpoint: 13.0°C (55°F) [RH = 82%]
Pressure (altimeter): 29.97 inches Hg (1015.0 mb)
Winds: from the SSW (200 degrees) at 9 MPH (8 knots; 4.1 m/s)
Visibility: 6 or more miles (10+ km)
Ceiling: at least 12,000 feet AGL
Clouds: few clouds at 1100 feet AGL
Weather: no significant weather observed at this time

METAR text: SCFA 250800Z 19008KT 9999 FEW011 16/13 Q1015 NOSIG
Conditions at: SCFA (ANTOFAGASTA/CERR, CL) observed 0800 UTC 25 April 2019
Temperature: 16.0°C (61°F)
Dewpoint: 13.0°C (55°F) [RH = 82%]
Pressure (altimeter): 29.97 inches Hg (1015.0 mb)
Winds: from the S (190 degrees) at 9 MPH (8 knots; 4.1 m/s)
Visibility: 6 or more miles (10+ km)
Ceiling: at least 12,000 feet AGL
Clouds: few clouds at 1100 feet AGL
Weather: no significant weather observed at this time

METAR text: SCFA 250700Z 16006KT 9999 FEW011 16/13 Q1015 NOSIG
Conditions at: SCFA (ANTOFAGASTA/CERR, CL) observed 0700 UTC 25 April 2019
Temperature: 16.0°C (61°F)
Dewpoint: 13.0°C (55°F) [RH = 82%]
Pressure (altimeter): 29.97 inches Hg (1015.0 mb)
Winds: from the SSE (160 degrees) at 7 MPH (6 knots; 3.1 m/s)
Visibility: 6 or more miles (10+ km)
Ceiling: at least 12,000 feet AGL
Clouds: few clouds at 1100 feet AGL
Weather: no significant weather observed at this time

METAR text: SCFA 250600Z 20009KT 9999 FEW011 16/12 Q1015 NOSIG
Conditions at: SCFA (ANTOFAGASTA/CERR, CL) observed 0600 UTC 25 April 2019
Temperature: 16.0°C (61°F)
Dewpoint: 12.0°C (54°F) [RH = 77%]
Pressure (altimeter): 29.97 inches Hg (1015.0 mb)
Winds: from the SSW (200 degrees) at 10 MPH (9 knots; 4.6 m/s)
Visibility: 6 or more miles (10+ km)
Ceiling: at least 12,000 feet AGL
Clouds: few clouds at 1100 feet AGL
Weather: no significant weather observed at this time

METAR text: SCFA 250500Z 20004KT 9999 FEW011 16/13 Q1014 NOSIG
Conditions at: SCFA (ANTOFAGASTA/CERR, CL) observed 0500 UTC 25 April 2019
Temperature: 16.0°C (61°F)
Dewpoint: 13.0°C (55°F) [RH = 82%]
Pressure (altimeter): 29.94 inches Hg (1014.0 mb)
Winds: from the SSW (200 degrees) at 5 MPH (4 knots; 2.1 m/s)
Visibility: 6 or more miles (10+ km)
Ceiling: at least 12,000 feet AGL
Clouds: few clouds at 1100 feet AGL
Weather: no significant weather observed at this time

METAR text: SCFA 250400Z 21003KT 9999 FEW011 17/13 Q1014 NOSIG
Conditions at: SCFA (ANTOFAGASTA/CERR, CL) observed 0400 UTC 25 April 2019
Temperature: 17.0°C (63°F)
Dewpoint: 13.0°C (55°F) [RH = 77%]
Pressure (altimeter): 29.94 inches Hg (1014.0 mb)
Winds: from the SSW (210 degrees) at 3 MPH (3 knots; 1.5 m/s)
Visibility: 6 or more miles (10+ km)
Ceiling: at least 12,000 feet AGL
Clouds: few clouds at 1100 feet AGL
Weather: no significant weather observed at this time

METAR text: SCFA 250300Z 17008KT 9999 FEW011 17/13 Q1015 NOSIG
Conditions at: SCFA (ANTOFAGASTA/CERR, CL) observed 0300 UTC 25 April 2019
Temperature: 17.0°C (63°F)
Dewpoint: 13.0°C (55°F) [RH = 77%]
Pressure (altimeter): 29.97 inches Hg (1015.0 mb)
Winds: from the S (170 degrees) at 9 MPH (8 knots; 4.1 m/s)
Visibility: 6 or more miles (10+ km)
Ceiling: at least 12,000 feet AGL
Clouds: few clouds at 1100 feet AGL
Weather: no significant weather observed at this time

METAR text: SCFA 250200Z 19002KT 9999 FEW011 17/14 Q1015 NOSIG
Conditions at: SCFA (ANTOFAGASTA/CERR, CL) observed 0200 UTC 25 April 2019
Temperature: 17.0°C (63°F)
Dewpoint: 14.0°C (57°F) [RH = 82%]
Pressure (altimeter): 29.97 inches Hg (1015.0 mb)
Winds: from the S (190 degrees) at 2 MPH (2 knots; 1.0 m/s)
Visibility: 6 or more miles (10+ km)
Ceiling: at least 12,000 feet AGL
Clouds: few clouds at 1100 feet AGL
Weather: no significant weather observed at this time

METAR text: SCFA 250100Z 19006KT 9999 FEW011 17/14 Q1015 NOSIG
Conditions at: SCFA (ANTOFAGASTA/CERR, CL) observed 0100 UTC 25 April 2019
Temperature: 17.0°C (63°F)
Dewpoint: 14.0°C (57°F) [RH = 82%]
Pressure (altimeter): 29.97 inches Hg (1015.0 mb)
Winds: from the S (190 degrees) at 7 MPH (6 knots; 3.1 m/s)
Visibility: 6 or more miles (10+ km)
Ceiling: at least 12,000 feet AGL
Clouds: few clouds at 1100 feet AGL
Weather: no significant weather observed at this time

METAR text: SCFA 250000Z 16008KT CAVOK 18/13 Q1015 NOSIG
Conditions at: SCFA (ANTOFAGASTA/CERR, CL) observed 0000 UTC 25 April 2019
Temperature: 18.0°C (64°F)
Dewpoint: 13.0°C (55°F) [RH = 73%]
Pressure (altimeter): 29.97 inches Hg (1015.0 mb)
Winds: from the SSE (160 degrees) at 9 MPH (8 knots; 4.1 m/s)
Visibility: 6 or more miles (10+ km)
Ceiling: ceiling and visibility are OK
Clouds: unknown
Weather: no significant weather observed at this time

METAR text: SCFA 242300Z 17010KT 9999 FEW018 18/13 Q1015 NOSIG
Conditions at: SCFA (ANTOFAGASTA/CERR, CL) observed 2300 UTC 24 April 2019
Temperature: 18.0°C (64°F)
Dewpoint: 13.0°C (55°F) [RH = 73%]
Pressure (altimeter): 29.97 inches Hg (1015.0 mb)
Winds: from the S (170 degrees) at 12 MPH (10 knots; 5.1 m/s)
Visibility: 6 or more miles (10+ km)
Ceiling: at least 12,000 feet AGL
Clouds: few clouds at 1800 feet AGL
Weather: no significant weather observed at this time

METAR text: SCFA 242200Z 19012KT 9999 FEW018 19/13 Q1015 NOSIG
Conditions at: SCFA (ANTOFAGASTA/CERR, CL) observed 2200 UTC 24 April 2019
Temperature: 19.0°C (66°F)
Dewpoint: 13.0°C (55°F) [RH = 68%]
Pressure (altimeter): 29.97 inches Hg (1015.0 mb)
Winds: from the S (190 degrees) at 14 MPH (12 knots; 6.2 m/s)
Visibility: 6 or more miles (10+ km)
Ceiling: at least 12,000 feet AGL
Clouds: few clouds at 1800 feet AGL
Weather: no significant weather observed at this time

METAR text: SCFA 242100Z 20013KT 9999 FEW026 19/13 Q1014 NOSIG
Conditions at: SCFA (ANTOFAGASTA/CERR, CL) observed 2100 UTC 24 April 2019
Temperature: 19.0°C (66°F)
Dewpoint: 13.0°C (55°F) [RH = 68%]
Pressure (altimeter): 29.94 inches Hg (1014.0 mb)
Winds: from the SSW (200 degrees) at 15 MPH (13 knots; 6.7 m/s)
Visibility: 6 or more miles (10+ km)
Ceiling: at least 12,000 feet AGL
Clouds: few clouds at 2600 feet AGL
Weather: no significant weather observed at this time

METAR text: SCFA 242000Z 21015KT 9999 FEW018 20/13 Q1015 NOSIG
Conditions at: SCFA (ANTOFAGASTA/CERR, CL) observed 2000 UTC 24 April 2019
Temperature: 20.0°C (68°F)
Dewpoint: 13.0°C (55°F) [RH = 64%]
Pressure (altimeter): 29.97 inches Hg (1015.0 mb)
Winds: from the SSW (210 degrees) at 17 MPH (15 knots; 7.7 m/s)
Visibility: 6 or more miles (10+ km)
Ceiling: at least 12,000 feet AGL
Clouds: few clouds at 1800 feet AGL
Weather: no significant weather observed at this time

METAR text: SCFA 241900Z 20015KT 9999 FEW025 20/13 Q1015 NOSIG
Conditions at: SCFA (ANTOFAGASTA/CERR, CL) observed 1900 UTC 24 April 2019
Temperature: 20.0°C (68°F)
Dewpoint: 13.0°C (55°F) [RH = 64%]
Pressure (altimeter): 29.97 inches Hg (1015.0 mb)
Winds: from the SSW (200 degrees) at 17 MPH (15 knots; 7.7 m/s)
Visibility: 6 or more miles (10+ km)
Ceiling: at least 12,000 feet AGL
Clouds: few clouds at 2500 feet AGL
Weather: no significant weather observed at this time

METAR text: SCFA 241800Z 19015KT 9999 FEW025 20/14 Q1015 NOSIG
Conditions at: SCFA (ANTOFAGASTA/CERR, CL) observed 1800 UTC 24 April 2019
Temperature: 20.0°C (68°F)
Dewpoint: 14.0°C (57°F) [RH = 68%]
Pressure (altimeter): 29.97 inches Hg (1015.0 mb)
Winds: from the S (190 degrees) at 17 MPH (15 knots; 7.7 m/s)
Visibility: 6 or more miles (10+ km)
Ceiling: at least 12,000 feet AGL
Clouds: few clouds at 2500 feet AGL
Weather: no significant weather observed at this time

METAR text: SCFA 241700Z 18013KT 9999 FEW028 SCT060 20/14 Q1016 NOSIG
Conditions at: SCFA (ANTOFAGASTA/CERR, CL) observed 1700 UTC 24 April 2019
Temperature: 20.0°C (68°F)
Dewpoint: 14.0°C (57°F) [RH = 68%]
Pressure (altimeter): 30.00 inches Hg (1016.0 mb)
Winds: from the S (180 degrees) at 15 MPH (13 knots; 6.7 m/s)
Visibility: 6 or more miles (10+ km)
Ceiling: at least 12,000 feet AGL
Clouds: few clouds at 2800 feet AGL
scattered clouds at 6000 feet AGL
Weather: no significant weather observed at this time

METAR text: SCFA 241600Z 19011KT 9999 FEW027 OVC050 20/13 Q1017 NOSIG
Conditions at: SCFA (ANTOFAGASTA/CERR, CL) observed 1600 UTC 24 April 2019
Temperature: 20.0°C (68°F)
Dewpoint: 13.0°C (55°F) [RH = 64%]
Pressure (altimeter): 30.03 inches Hg (1017.0 mb)
Winds: from the S (190 degrees) at 13 MPH (11 knots; 5.7 m/s)
Visibility: 6 or more miles (10+ km)
Ceiling: 5000 feet AGL
Clouds: few clouds at 2700 feet AGL
overcast cloud deck at 5000 feet AGL
Weather: no significant weather observed at this time

Forecast for: SCFA (ANTOFAGASTA/CERR, CL)
Text: TAF SCFA 252230Z 2600/2624 19010KT 9999 SCT012 TN16/2610Z TX19/2618Z
Forecast period: 0000 to 0300 UTC 26 April 2019
Forecast type: FROM: standard forecast or significant change
Winds: from the S (190 degrees) at 12 MPH (10 knots; 5.1 m/s)
Visibility: 6 or more miles 10+ km)
Ceiling: at least 12,000 feet AGL
Clouds: scattered clouds at 1200 feet AGL
Weather: no significant weather forecast for this period
Text: BECMG 2603/2605 BKN016
Forecast period: 0300 to 1200 UTC 26 April 2019
Forecast type: BECOMING: Conditions expected to become as follows by 0500 UTC 26 April 2019
Winds: from the S (190 degrees) at 12 MPH (10 knots; 5.1 m/s)
Visibility: 6 or more miles 10+ km)
Ceiling: 1600 feet AGL
Clouds: broken clouds at 1600 feet AGL
Weather: no significant weather forecast for this period
Text: BECMG 2612/2614 21007KT FEW020
Forecast period: 1200 to 1700 UTC 26 April 2019
Forecast type: BECOMING: Conditions expected to become as follows by 1400 UTC 26 April 2019
Winds: from the SSW (210 degrees) at 8 MPH (7 knots; 3.6 m/s)
Visibility: 6 or more miles 10+ km)
Ceiling: at least 12,000 feet AGL
Clouds: few clouds at 2000 feet AGL
Weather: no significant weather forecast for this period
Text: BECMG 2617/2619 20017KT
Forecast period: 1700 UTC 26 April 2019 to 0000 UTC 27 April 2019
Forecast type: BECOMING: Conditions expected to become as follows by 1900 UTC 26 April 2019
Winds: from the SSW (200 degrees) at 20 MPH (17 knots; 8.7 m/s)
Visibility: 6 or more miles 10+ km)
Ceiling: at least 12,000 feet AGL
Clouds: few clouds at 2000 feet AGL
Weather: no significant weather forecast for this period